This is the latest recevied weather packets stored in our database for station/object DB8NZ-11. If no packets are shown the sender has not sent any weather packets the latest 10 day(s).
| Time | Temp. | Humidity | Pressure | Rain* | Wind** | Luminosity | Snow |
|---|---|---|---|---|---|---|---|
| 1777957013 | 15.56° C | 79% | 1014.9 hPa | - | - | - | - |
| 1777956112 | 15° C | 80% | 1014.8 hPa | - | - | - | - |
| 1777955212 | 15° C | 84% | 1014.7 hPa | - | - | - | - |
| 1777954312 | 14.44° C | 84% | 1014.7 hPa | - | - | - | - |
| 1777953412 | 14.44° C | 82% | 1014.8 hPa | - | - | - | - |
| 1777952511 | 14.44° C | 86% | 1014.6 hPa | - | - | - | - |
| 1777951611 | 14.44° C | 84% | 1014.8 hPa | - | - | - | - |
| 1777950711 | 14.44° C | 87% | 1015.1 hPa | - | - | - | - |
| 1777949811 | 15° C | 83% | 1015.3 hPa | - | - | - | - |
| 1777949435 | 15° C | 83% | 1015.3 hPa | - | - | - | - |
| 1777948535 | 15° C | 83% | 1015.5 hPa | - | - | - | - |
| 1777947635 | 15° C | 86% | 1015.6 hPa | - | - | - | - |
| 1777946735 | 15° C | 84% | 1015.7 hPa | - | - | - | - |
| 1777945835 | 15° C | 83% | 1015.7 hPa | - | - | - | - |
| 1777944935 | 15° C | 84% | 1015.6 hPa | - | - | - | - |
| 1777942233 | 15.56° C | 84% | 1015.8 hPa | - | - | - | - |
| 1777941332 | 15.56° C | 84% | 1016 hPa | - | - | - | - |
| 1777940432 | 15.56° C | 84% | 1016.2 hPa | - | - | - | - |
| 1777939532 | 16.11° C | 83% | 1016.4 hPa | - | - | - | - |
| 1777938632 | 15.56° C | 84% | 1016.5 hPa | - | - | - | - |
| 1777937731 | 16.67° C | 76% | 1017.1 hPa | - | - | - | - |
| 1777936831 | 16.67° C | 75% | 1017.1 hPa | - | - | - | - |
| 1777935931 | 16.67° C | 71% | 1017.2 hPa | - | - | - | - |
| 1777935031 | 17.22° C | 69% | 1017.1 hPa | - | - | - | - |
| 1777934130 | 17.22° C | 64% | 1017.1 hPa | - | - | - | - |
* Rain since midnight (hover to see other rain measurements)
** Current wind speed in m/s (hover to see current wind gust speed)